sensor_id;sensor_type;location;lat;lon;timestamp;P1;durP1;ratioP1;P2;durP2;ratioP2
59300;SDS011;45073;52.740;6.784;2023-02-22T00:00:49;29.92;;;15.55;;
59300;SDS011;45073;52.740;6.784;2023-02-22T00:03:20;28.77;;;15.05;;
59300;SDS011;45073;52.740;6.784;2023-02-22T00:05:49;29.13;;;15.02;;
59300;SDS011;45073;52.740;6.784;2023-02-22T00:08:18;31.33;;;16.13;;
59300;SDS011;45073;52.740;6.784;2023-02-22T00:10:45;29.80;;;15.13;;
59300;SDS011;45073;52.740;6.784;2023-02-22T00:13:15;34.58;;;16.90;;
59300;SDS011;45073;52.740;6.784;2023-02-22T00:15:43;31.23;;;16.10;;
59300;SDS011;45073;52.740;6.784;2023-02-22T00:18:13;27.23;;;15.40;;
59300;SDS011;45073;52.740;6.784;2023-02-22T00:20:40;30.02;;;15.77;;
59300;SDS011;45073;52.740;6.784;2023-02-22T00:23:07;28.05;;;14.50;;
59300;SDS011;45073;52.740;6.784;2023-02-22T00:25:44;31.77;;;15.85;;
59300;SDS011;45073;52.740;6.784;2023-02-22T00:28:11;31.55;;;15.68;;
59300;SDS011;45073;52.740;6.784;2023-02-22T00:30:39;30.27;;;15.52;;
59300;SDS011;45073;52.740;6.784;2023-02-22T00:33:07;30.33;;;16.42;;
59300;SDS011;45073;52.740;6.784;2023-02-22T00:35:34;33.15;;;17.02;;
59300;SDS011;45073;52.740;6.784;2023-02-22T00:38:00;32.05;;;17.52;;
59300;SDS011;45073;52.740;6.784;2023-02-22T00:40:31;38.75;;;19.75;;
59300;SDS011;45073;52.740;6.784;2023-02-22T00:42:59;31.63;;;17.45;;
59300;SDS011;45073;52.740;6.784;2023-02-22T00:45:27;35.80;;;18.83;;
59300;SDS011;45073;52.740;6.784;2023-02-22T00:47:54;37.33;;;19.20;;
59300;SDS011;45073;52.740;6.784;2023-02-22T00:50:20;34.05;;;18.25;;
59300;SDS011;45073;52.740;6.784;2023-02-22T00:52:47;34.35;;;18.58;;
59300;SDS011;45073;52.740;6.784;2023-02-22T00:55:17;35.85;;;17.13;;
59300;SDS011;45073;52.740;6.784;2023-02-22T00:57:48;34.90;;;17.73;;
59300;SDS011;45073;52.740;6.784;2023-02-22T01:00:18;35.10;;;18.70;;
59300;SDS011;45073;52.740;6.784;2023-02-22T01:02:48;33.97;;;18.10;;
59300;SDS011;45073;52.740;6.784;2023-02-22T01:05:15;33.78;;;17.02;;
59300;SDS011;45073;52.740;6.784;2023-02-22T01:07:42;35.13;;;18.55;;
59300;SDS011;45073;52.740;6.784;2023-02-22T01:10:09;35.40;;;17.92;;
59300;SDS011;45073;52.740;6.784;2023-02-22T01:12:35;39.38;;;18.55;;
59300;SDS011;45073;52.740;6.784;2023-02-22T01:15:02;35.15;;;18.60;;
59300;SDS011;45073;52.740;6.784;2023-02-22T01:17:28;34.92;;;17.95;;
59300;SDS011;45073;52.740;6.784;2023-02-22T01:19:54;36.60;;;18.98;;
59300;SDS011;45073;52.740;6.784;2023-02-22T01:22:20;34.78;;;17.90;;
59300;SDS011;45073;52.740;6.784;2023-02-22T01:24:47;38.15;;;19.10;;
59300;SDS011;45073;52.740;6.784;2023-02-22T01:27:13;40.50;;;19.73;;
59300;SDS011;45073;52.740;6.784;2023-02-22T01:29:40;37.25;;;18.70;;
59300;SDS011;45073;52.740;6.784;2023-02-22T01:32:06;38.22;;;19.05;;
59300;SDS011;45073;52.740;6.784;2023-02-22T01:34:32;38.85;;;18.85;;
59300;SDS011;45073;52.740;6.784;2023-02-22T01:36:58;37.25;;;18.27;;
59300;SDS011;45073;52.740;6.784;2023-02-22T01:39:25;35.58;;;17.77;;
59300;SDS011;45073;52.740;6.784;2023-02-22T01:41:52;36.15;;;18.33;;
59300;SDS011;45073;52.740;6.784;2023-02-22T01:46:52;34.75;;;17.95;;
59300;SDS011;45073;52.740;6.784;2023-02-22T01:49:19;34.13;;;17.70;;
59300;SDS011;45073;52.740;6.784;2023-02-22T01:51:47;38.38;;;19.88;;
59300;SDS011;45073;52.740;6.784;2023-02-22T01:57:28;43.53;;;19.80;;
59300;SDS011;45073;52.740;6.784;2023-02-22T01:59:46;35.83;;;17.80;;
59300;SDS011;45073;52.740;6.784;2023-02-22T02:02:14;37.47;;;17.80;;
59300;SDS011;45073;52.740;6.784;2023-02-22T02:04:42;33.80;;;17.77;;
59300;SDS011;45073;52.740;6.784;2023-02-22T02:07:10;35.00;;;17.42;;
59300;SDS011;45073;52.740;6.784;2023-02-22T02:09:51;35.13;;;17.48;;
59300;SDS011;45073;52.740;6.784;2023-02-22T02:12:23;34.33;;;17.27;;
59300;SDS011;45073;52.740;6.784;2023-02-22T02:14:51;32.28;;;16.85;;
59300;SDS011;45073;52.740;6.784;2023-02-22T02:17:17;33.42;;;17.75;;
59300;SDS011;45073;52.740;6.784;2023-02-22T02:22:14;35.83;;;17.48;;
59300;SDS011;45073;52.740;6.784;2023-02-22T02:33:17;33.00;;;15.82;;
59300;SDS011;45073;52.740;6.784;2023-02-22T02:35:54;30.38;;;16.45;;
59300;SDS011;45073;52.740;6.784;2023-02-22T02:41:23;35.70;;;16.38;;
59300;SDS011;45073;52.740;6.784;2023-02-22T02:44:24;36.72;;;18.10;;
59300;SDS011;45073;52.740;6.784;2023-02-22T02:46:59;35.28;;;16.90;;
59300;SDS011;45073;52.740;6.784;2023-02-22T02:49:52;36.63;;;18.65;;
59300;SDS011;45073;52.740;6.784;2023-02-22T02:52:39;35.58;;;18.30;;
59300;SDS011;45073;52.740;6.784;2023-02-22T02:55:06;33.10;;;16.27;;
59300;SDS011;45073;52.740;6.784;2023-02-22T02:57:35;32.28;;;16.92;;
59300;SDS011;45073;52.740;6.784;2023-02-22T03:00:03;40.63;;;19.25;;
59300;SDS011;45073;52.740;6.784;2023-02-22T03:11:08;42.53;;;21.30;;
59300;SDS011;45073;52.740;6.784;2023-02-22T03:13:55;39.00;;;19.73;;
59300;SDS011;45073;52.740;6.784;2023-02-22T03:19:21;38.38;;;18.88;;
59300;SDS011;45073;52.740;6.784;2023-02-22T03:24:52;44.10;;;21.88;;
59300;SDS011;45073;52.740;6.784;2023-02-22T03:30:09;45.20;;;23.60;;
59300;SDS011;45073;52.740;6.784;2023-02-22T03:32:43;39.10;;;19.33;;
59300;SDS011;45073;52.740;6.784;2023-02-22T03:35:20;44.10;;;21.05;;
59300;SDS011;45073;52.740;6.784;2023-02-22T03:37:52;47.95;;;23.25;;
59300;SDS011;45073;52.740;6.784;2023-02-22T03:40:24;52.65;;;26.33;;
59300;SDS011;45073;52.740;6.784;2023-02-22T03:42:56;50.45;;;26.40;;
59300;SDS011;45073;52.740;6.784;2023-02-22T03:45:33;49.92;;;25.05;;
59300;SDS011;45073;52.740;6.784;2023-02-22T03:50:39;51.50;;;25.15;;
59300;SDS011;45073;52.740;6.784;2023-02-22T03:53:05;52.83;;;25.88;;
59300;SDS011;45073;52.740;6.784;2023-02-22T03:55:31;57.42;;;26.13;;
59300;SDS011;45073;52.740;6.784;2023-02-22T03:57:58;54.97;;;27.27;;
59300;SDS011;45073;52.740;6.784;2023-02-22T04:00:28;53.58;;;26.30;;
59300;SDS011;45073;52.740;6.784;2023-02-22T04:02:56;51.83;;;25.95;;
59300;SDS011;45073;52.740;6.784;2023-02-22T04:05:21;52.78;;;26.33;;
59300;SDS011;45073;52.740;6.784;2023-02-22T04:07:49;59.22;;;29.08;;
59300;SDS011;45073;52.740;6.784;2023-02-22T04:10:19;59.13;;;29.15;;
59300;SDS011;45073;52.740;6.784;2023-02-22T04:12:45;68.22;;;29.90;;
59300;SDS011;45073;52.740;6.784;2023-02-22T04:15:12;59.63;;;26.48;;
59300;SDS011;45073;52.740;6.784;2023-02-22T04:17:40;67.22;;;29.35;;
59300;SDS011;45073;52.740;6.784;2023-02-22T04:20:05;58.70;;;29.15;;
59300;SDS011;45073;52.740;6.784;2023-02-22T04:22:31;54.88;;;26.25;;
59300;SDS011;45073;52.740;6.784;2023-02-22T04:24:57;65.10;;;27.75;;
59300;SDS011;45073;52.740;6.784;2023-02-22T04:27:23;65.00;;;29.85;;
59300;SDS011;45073;52.740;6.784;2023-02-22T04:29:48;67.95;;;29.40;;
59300;SDS011;45073;52.740;6.784;2023-02-22T04:32:14;66.35;;;30.95;;
59300;SDS011;45073;52.740;6.784;2023-02-22T04:34:40;64.95;;;30.45;;
59300;SDS011;45073;52.740;6.784;2023-02-22T04:37:06;60.30;;;29.13;;
59300;SDS011;45073;52.740;6.784;2023-02-22T04:39:32;62.67;;;29.40;;
59300;SDS011;45073;52.740;6.784;2023-02-22T04:41:57;64.40;;;30.90;;
59300;SDS011;45073;52.740;6.784;2023-02-22T04:44:23;63.97;;;29.63;;
59300;SDS011;45073;52.740;6.784;2023-02-22T04:46:49;62.42;;;31.10;;
59300;SDS011;45073;52.740;6.784;2023-02-22T04:49:14;65.22;;;28.95;;
59300;SDS011;45073;52.740;6.784;2023-02-22T04:51:40;63.60;;;28.23;;
59300;SDS011;45073;52.740;6.784;2023-02-22T04:54:06;62.35;;;26.92;;
59300;SDS011;45073;52.740;6.784;2023-02-22T04:56:32;63.75;;;26.88;;
59300;SDS011;45073;52.740;6.784;2023-02-22T04:58:58;63.67;;;28.20;;
59300;SDS011;45073;52.740;6.784;2023-02-22T05:01:24;63.00;;;27.83;;
59300;SDS011;45073;52.740;6.784;2023-02-22T05:03:49;64.43;;;26.38;;
59300;SDS011;45073;52.740;6.784;2023-02-22T05:06:16;66.70;;;27.20;;
59300;SDS011;45073;52.740;6.784;2023-02-22T05:08:42;66.18;;;28.00;;
59300;SDS011;45073;52.740;6.784;2023-02-22T05:11:07;59.17;;;27.15;;
59300;SDS011;45073;52.740;6.784;2023-02-22T05:13:34;63.33;;;26.92;;
59300;SDS011;45073;52.740;6.784;2023-02-22T05:16:00;63.78;;;29.02;;
59300;SDS011;45073;52.740;6.784;2023-02-22T05:18:26;61.75;;;25.30;;
59300;SDS011;45073;52.740;6.784;2023-02-22T05:20:52;62.25;;;26.23;;
59300;SDS011;45073;52.740;6.784;2023-02-22T05:23:17;61.08;;;27.27;;
59300;SDS011;45073;52.740;6.784;2023-02-22T05:25:43;68.25;;;28.95;;
59300;SDS011;45073;52.740;6.784;2023-02-22T05:28:10;72.25;;;28.63;;
59300;SDS011;45073;52.740;6.784;2023-02-22T05:30:38;63.45;;;27.27;;
59300;SDS011;45073;52.740;6.784;2023-02-22T05:33:05;60.55;;;26.30;;
59300;SDS011;45073;52.740;6.784;2023-02-22T05:35:32;63.90;;;27.00;;
59300;SDS011;45073;52.740;6.784;2023-02-22T05:37:57;70.03;;;29.02;;
59300;SDS011;45073;52.740;6.784;2023-02-22T05:40:26;63.42;;;27.90;;
59300;SDS011;45073;52.740;6.784;2023-02-22T05:42:52;69.03;;;28.25;;
59300;SDS011;45073;52.740;6.784;2023-02-22T05:45:20;71.40;;;29.38;;
59300;SDS011;45073;52.740;6.784;2023-02-22T05:47:47;69.50;;;31.42;;
59300;SDS011;45073;52.740;6.784;2023-02-22T05:50:14;67.40;;;27.92;;
59300;SDS011;45073;52.740;6.784;2023-02-22T05:52:40;75.93;;;29.73;;
59300;SDS011;45073;52.740;6.784;2023-02-22T05:55:06;71.20;;;29.33;;
59300;SDS011;45073;52.740;6.784;2023-02-22T05:57:33;76.72;;;30.48;;
59300;SDS011;45073;52.740;6.784;2023-02-22T05:59:59;69.15;;;28.25;;
59300;SDS011;45073;52.740;6.784;2023-02-22T06:02:24;72.85;;;29.80;;
59300;SDS011;45073;52.740;6.784;2023-02-22T06:04:50;67.35;;;29.90;;
59300;SDS011;45073;52.740;6.784;2023-02-22T06:07:15;70.43;;;28.60;;
59300;SDS011;45073;52.740;6.784;2023-02-22T06:09:41;74.45;;;31.25;;
59300;SDS011;45073;52.740;6.784;2023-02-22T06:12:07;71.45;;;30.38;;
59300;SDS011;45073;52.740;6.784;2023-02-22T06:14:33;74.95;;;30.35;;
59300;SDS011;45073;52.740;6.784;2023-02-22T06:16:58;72.45;;;29.50;;
59300;SDS011;45073;52.740;6.784;2023-02-22T06:19:25;71.18;;;29.05;;
59300;SDS011;45073;52.740;6.784;2023-02-22T06:21:52;71.03;;;28.35;;
59300;SDS011;45073;52.740;6.784;2023-02-22T06:24:19;72.25;;;30.73;;
59300;SDS011;45073;52.740;6.784;2023-02-22T06:26:45;68.43;;;28.98;;
59300;SDS011;45073;52.740;6.784;2023-02-22T06:29:11;73.40;;;29.42;;
59300;SDS011;45073;52.740;6.784;2023-02-22T06:31:37;76.90;;;30.95;;
59300;SDS011;45073;52.740;6.784;2023-02-22T06:34:03;69.93;;;28.02;;
59300;SDS011;45073;52.740;6.784;2023-02-22T06:36:28;71.78;;;28.80;;
59300;SDS011;45073;52.740;6.784;2023-02-22T06:38:55;69.50;;;27.70;;
59300;SDS011;45073;52.740;6.784;2023-02-22T06:41:21;69.72;;;27.75;;
59300;SDS011;45073;52.740;6.784;2023-02-22T06:43:48;71.78;;;30.05;;
59300;SDS011;45073;52.740;6.784;2023-02-22T06:46:14;66.35;;;29.92;;
59300;SDS011;45073;52.740;6.784;2023-02-22T06:48:39;77.80;;;32.35;;
59300;SDS011;45073;52.740;6.784;2023-02-22T06:51:06;72.72;;;29.02;;
59300;SDS011;45073;52.740;6.784;2023-02-22T06:53:33;73.82;;;29.40;;
59300;SDS011;45073;52.740;6.784;2023-02-22T06:55:59;74.78;;;29.73;;
59300;SDS011;45073;52.740;6.784;2023-02-22T06:58:25;69.32;;;28.38;;
59300;SDS011;45073;52.740;6.784;2023-02-22T07:00:51;74.45;;;28.95;;
59300;SDS011;45073;52.740;6.784;2023-02-22T07:03:17;72.78;;;27.92;;
59300;SDS011;45073;52.740;6.784;2023-02-22T07:05:43;72.47;;;29.95;;
59300;SDS011;45073;52.740;6.784;2023-02-22T07:08:09;68.22;;;29.08;;
59300;SDS011;45073;52.740;6.784;2023-02-22T07:10:36;67.15;;;28.27;;
59300;SDS011;45073;52.740;6.784;2023-02-22T07:13:02;70.72;;;29.65;;
59300;SDS011;45073;52.740;6.784;2023-02-22T07:15:30;74.35;;;30.20;;
59300;SDS011;45073;52.740;6.784;2023-02-22T07:17:57;70.32;;;27.70;;
59300;SDS011;45073;52.740;6.784;2023-02-22T07:20:24;72.55;;;29.63;;
59300;SDS011;45073;52.740;6.784;2023-02-22T07:22:51;77.30;;;29.58;;
59300;SDS011;45073;52.740;6.784;2023-02-22T07:25:17;76.13;;;28.73;;
59300;SDS011;45073;52.740;6.784;2023-02-22T07:27:43;80.95;;;31.17;;
59300;SDS011;45073;52.740;6.784;2023-02-22T07:30:17;79.60;;;32.30;;
59300;SDS011;45073;52.740;6.784;2023-02-22T07:32:49;78.68;;;29.13;;
59300;SDS011;45073;52.740;6.784;2023-02-22T07:35:17;74.75;;;29.83;;
59300;SDS011;45073;52.740;6.784;2023-02-22T07:37:45;75.10;;;29.90;;
59300;SDS011;45073;52.740;6.784;2023-02-22T07:40:12;81.63;;;31.73;;
59300;SDS011;45073;52.740;6.784;2023-02-22T07:45:28;84.47;;;33.22;;
59300;SDS011;45073;52.740;6.784;2023-02-22T07:47:59;83.30;;;33.55;;
59300;SDS011;45073;52.740;6.784;2023-02-22T07:50:26;80.72;;;32.85;;
59300;SDS011;45073;52.740;6.784;2023-02-22T07:52:55;82.68;;;32.05;;
59300;SDS011;45073;52.740;6.784;2023-02-22T07:55:23;88.65;;;34.50;;
59300;SDS011;45073;52.740;6.784;2023-02-22T07:57:54;86.60;;;34.20;;
59300;SDS011;45073;52.740;6.784;2023-02-22T08:00:31;92.03;;;35.58;;
59300;SDS011;45073;52.740;6.784;2023-02-22T08:02:59;84.63;;;32.38;;
59300;SDS011;45073;52.740;6.784;2023-02-22T08:05:27;91.78;;;35.47;;
59300;SDS011;45073;52.740;6.784;2023-02-22T08:07:54;91.28;;;34.78;;
59300;SDS011;45073;52.740;6.784;2023-02-22T08:10:21;89.70;;;34.65;;
59300;SDS011;45073;52.740;6.784;2023-02-22T08:12:48;92.55;;;35.17;;
59300;SDS011;45073;52.740;6.784;2023-02-22T08:15:16;90.72;;;34.05;;
59300;SDS011;45073;52.740;6.784;2023-02-22T08:17:48;93.50;;;34.38;;
59300;SDS011;45073;52.740;6.784;2023-02-22T08:20:14;92.88;;;36.55;;
59300;SDS011;45073;52.740;6.784;2023-02-22T08:22:41;92.18;;;33.90;;
59300;SDS011;45073;52.740;6.784;2023-02-22T08:25:08;95.28;;;33.92;;
59300;SDS011;45073;52.740;6.784;2023-02-22T08:27:34;95.63;;;36.70;;
59300;SDS011;45073;52.740;6.784;2023-02-22T08:29:59;84.88;;;33.20;;
59300;SDS011;45073;52.740;6.784;2023-02-22T08:32:25;93.65;;;35.00;;
59300;SDS011;45073;52.740;6.784;2023-02-22T08:34:51;95.10;;;35.35;;
59300;SDS011;45073;52.740;6.784;2023-02-22T08:37:17;98.72;;;35.65;;
59300;SDS011;45073;52.740;6.784;2023-02-22T08:39:43;99.30;;;36.88;;
59300;SDS011;45073;52.740;6.784;2023-02-22T08:42:08;95.30;;;34.17;;
59300;SDS011;45073;52.740;6.784;2023-02-22T08:44:35;88.40;;;35.08;;
59300;SDS011;45073;52.740;6.784;2023-02-22T08:47:01;93.78;;;37.80;;
59300;SDS011;45073;52.740;6.784;2023-02-22T08:49:27;90.88;;;35.63;;
59300;SDS011;45073;52.740;6.784;2023-02-22T08:51:53;95.35;;;35.63;;
59300;SDS011;45073;52.740;6.784;2023-02-22T08:54:18;96.18;;;36.83;;
59300;SDS011;45073;52.740;6.784;2023-02-22T08:56:44;91.18;;;36.65;;
59300;SDS011;45073;52.740;6.784;2023-02-22T08:59:09;88.25;;;35.70;;
59300;SDS011;45073;52.740;6.784;2023-02-22T09:01:35;88.85;;;34.90;;
59300;SDS011;45073;52.740;6.784;2023-02-22T09:04:01;86.50;;;34.65;;
59300;SDS011;45073;52.740;6.784;2023-02-22T09:06:27;87.80;;;35.50;;
59300;SDS011;45073;52.740;6.784;2023-02-22T09:08:53;94.85;;;33.85;;
59300;SDS011;45073;52.740;6.784;2023-02-22T09:11:19;95.40;;;37.90;;
59300;SDS011;45073;52.740;6.784;2023-02-22T09:13:45;103.57;;;36.83;;
59300;SDS011;45073;52.740;6.784;2023-02-22T09:16:10;89.68;;;33.85;;
59300;SDS011;45073;52.740;6.784;2023-02-22T09:18:36;93.97;;;34.10;;
59300;SDS011;45073;52.740;6.784;2023-02-22T09:21:02;88.97;;;33.22;;
59300;SDS011;45073;52.740;6.784;2023-02-22T09:23:29;89.85;;;33.70;;
59300;SDS011;45073;52.740;6.784;2023-02-22T09:25:54;81.25;;;32.30;;
59300;SDS011;45073;52.740;6.784;2023-02-22T09:28:20;86.47;;;33.20;;
59300;SDS011;45073;52.740;6.784;2023-02-22T09:30:46;83.35;;;31.67;;
59300;SDS011;45073;52.740;6.784;2023-02-22T09:33:14;89.28;;;32.17;;
59300;SDS011;45073;52.740;6.784;2023-02-22T09:35:42;84.65;;;31.70;;
59300;SDS011;45073;52.740;6.784;2023-02-22T09:38:15;97.13;;;33.10;;
59300;SDS011;45073;52.740;6.784;2023-02-22T09:40:48;86.50;;;29.92;;
59300;SDS011;45073;52.740;6.784;2023-02-22T09:49:03;79.32;;;29.92;;
59300;SDS011;45073;52.740;6.784;2023-02-22T09:54:28;85.30;;;31.05;;
59300;SDS011;45073;52.740;6.784;2023-02-22T09:57:03;77.85;;;29.30;;
59300;SDS011;45073;52.740;6.784;2023-02-22T09:59:34;84.05;;;31.92;;
59300;SDS011;45073;52.740;6.784;2023-02-22T10:02:17;76.95;;;27.58;;
59300;SDS011;45073;52.740;6.784;2023-02-22T10:04:59;78.32;;;28.10;;
59300;SDS011;45073;52.740;6.784;2023-02-22T10:07:45;70.22;;;27.38;;
59300;SDS011;45073;52.740;6.784;2023-02-22T10:10:17;75.95;;;27.20;;
59300;SDS011;45073;52.740;6.784;2023-02-22T10:28:51;72.97;;;29.15;;
59300;SDS011;45073;52.740;6.784;2023-02-22T10:31:25;73.32;;;28.70;;
59300;SDS011;45073;52.740;6.784;2023-02-22T10:33:57;74.53;;;28.10;;
59300;SDS011;45073;52.740;6.784;2023-02-22T10:36:26;68.40;;;27.20;;
59300;SDS011;45073;52.740;6.784;2023-02-22T10:38:58;74.32;;;27.33;;
59300;SDS011;45073;52.740;6.784;2023-02-22T10:41:28;69.28;;;27.48;;
59300;SDS011;45073;52.740;6.784;2023-02-22T10:43:55;77.45;;;27.42;;
59300;SDS011;45073;52.740;6.784;2023-02-22T10:46:21;67.28;;;27.52;;
59300;SDS011;45073;52.740;6.784;2023-02-22T10:48:51;68.07;;;25.83;;
59300;SDS011;45073;52.740;6.784;2023-02-22T10:51:20;65.75;;;25.17;;
59300;SDS011;45073;52.740;6.784;2023-02-22T10:53:52;72.45;;;25.30;;
59300;SDS011;45073;52.740;6.784;2023-02-22T10:56:30;67.63;;;25.80;;
59300;SDS011;45073;52.740;6.784;2023-02-22T10:59:02;62.20;;;25.90;;
59300;SDS011;45073;52.740;6.784;2023-02-22T11:03:56;70.45;;;26.75;;
59300;SDS011;45073;52.740;6.784;2023-02-22T11:06:37;79.40;;;29.85;;
59300;SDS011;45073;52.740;6.784;2023-02-22T11:09:08;76.88;;;30.10;;
59300;SDS011;45073;52.740;6.784;2023-02-22T11:14:24;67.57;;;27.67;;
59300;SDS011;45073;52.740;6.784;2023-02-22T11:16:52;68.88;;;26.50;;
59300;SDS011;45073;52.740;6.784;2023-02-22T11:19:21;70.18;;;26.45;;
59300;SDS011;45073;52.740;6.784;2023-02-22T11:21:50;60.17;;;24.95;;
59300;SDS011;45073;52.740;6.784;2023-02-22T11:24:19;59.97;;;24.90;;
59300;SDS011;45073;52.740;6.784;2023-02-22T11:26:54;62.72;;;28.20;;
59300;SDS011;45073;52.740;6.784;2023-02-22T11:31:51;70.13;;;26.67;;
59300;SDS011;45073;52.740;6.784;2023-02-22T11:37:17;83.00;;;33.20;;
59300;SDS011;45073;52.740;6.784;2023-02-22T11:40:10;72.75;;;29.67;;
59300;SDS011;45073;52.740;6.784;2023-02-22T11:42:37;68.97;;;29.98;;
59300;SDS011;45073;52.740;6.784;2023-02-22T11:45:10;73.85;;;29.90;;
59300;SDS011;45073;52.740;6.784;2023-02-22T11:50:23;80.00;;;32.00;;
59300;SDS011;45073;52.740;6.784;2023-02-22T11:56:38;67.22;;;27.65;;
59300;SDS011;45073;52.740;6.784;2023-02-22T11:59:11;60.67;;;25.77;;
59300;SDS011;45073;52.740;6.784;2023-02-22T12:01:55;57.22;;;25.85;;
59300;SDS011;45073;52.740;6.784;2023-02-22T12:09:52;61.85;;;29.48;;
59300;SDS011;45073;52.740;6.784;2023-02-22T12:15:13;60.00;;;27.58;;
59300;SDS011;45073;52.740;6.784;2023-02-22T12:25:28;51.10;;;24.55;;
59300;SDS011;45073;52.740;6.784;2023-02-22T12:28:18;52.13;;;24.23;;
59300;SDS011;45073;52.740;6.784;2023-02-22T12:30:51;51.05;;;24.02;;
59300;SDS011;45073;52.740;6.784;2023-02-22T12:33:28;51.05;;;24.00;;
59300;SDS011;45073;52.740;6.784;2023-02-22T12:36:18;49.00;;;22.67;;
59300;SDS011;45073;52.740;6.784;2023-02-22T12:38:53;50.47;;;23.35;;
59300;SDS011;45073;52.740;6.784;2023-02-22T12:41:26;45.10;;;23.35;;
59300;SDS011;45073;52.740;6.784;2023-02-22T12:46:54;49.30;;;23.02;;
59300;SDS011;45073;52.740;6.784;2023-02-22T12:49:25;45.58;;;22.30;;
59300;SDS011;45073;52.740;6.784;2023-02-22T12:52:06;49.72;;;23.35;;
59300;SDS011;45073;52.740;6.784;2023-02-22T12:54:54;49.97;;;24.48;;
59300;SDS011;45073;52.740;6.784;2023-02-22T13:03:00;48.38;;;24.83;;
59300;SDS011;45073;52.740;6.784;2023-02-22T13:05:32;51.22;;;24.52;;
59300;SDS011;45073;52.740;6.784;2023-02-22T13:08:23;48.75;;;25.10;;
59300;SDS011;45073;52.740;6.784;2023-02-22T13:14:15;49.72;;;25.05;;
59300;SDS011;45073;52.740;6.784;2023-02-22T13:16:47;47.53;;;25.08;;
59300;SDS011;45073;52.740;6.784;2023-02-22T13:19:37;48.47;;;25.70;;
59300;SDS011;45073;52.740;6.784;2023-02-22T13:22:34;47.45;;;24.98;;
59300;SDS011;45073;52.740;6.784;2023-02-22T13:25:15;45.58;;;25.27;;
59300;SDS011;45073;52.740;6.784;2023-02-22T13:28:07;40.97;;;22.58;;
59300;SDS011;45073;52.740;6.784;2023-02-22T13:31:00;43.78;;;22.45;;
59300;SDS011;45073;52.740;6.784;2023-02-22T13:36:25;41.10;;;22.60;;
59300;SDS011;45073;52.740;6.784;2023-02-22T13:39:45;35.80;;;20.40;;
59300;SDS011;45073;52.740;6.784;2023-02-22T13:47:59;42.33;;;34.65;;
59300;SDS011;45073;52.740;6.784;2023-02-22T13:50:40;39.85;;;22.65;;
59300;SDS011;45073;52.740;6.784;2023-02-22T13:53:22;37.53;;;21.15;;
59300;SDS011;45073;52.740;6.784;2023-02-22T13:55:52;41.20;;;33.25;;
59300;SDS011;45073;52.740;6.784;2023-02-22T13:58:21;37.83;;;22.60;;
59300;SDS011;45073;52.740;6.784;2023-02-22T14:05:54;33.72;;;19.85;;
59300;SDS011;45073;52.740;6.784;2023-02-22T14:10:58;30.67;;;18.55;;
59300;SDS011;45073;52.740;6.784;2023-02-22T14:13:26;33.70;;;27.80;;
59300;SDS011;45073;52.740;6.784;2023-02-22T14:18:25;34.83;;;28.88;;
59300;SDS011;45073;52.740;6.784;2023-02-22T14:21:05;34.30;;;17.67;;
59300;SDS011;45073;52.740;6.784;2023-02-22T14:23:35;32.65;;;17.98;;
59300;SDS011;45073;52.740;6.784;2023-02-22T14:28:57;32.88;;;19.17;;
59300;SDS011;45073;52.740;6.784;2023-02-22T14:31:31;29.23;;;16.38;;
59300;SDS011;45073;52.740;6.784;2023-02-22T14:34:10;32.95;;;17.60;;
59300;SDS011;45073;52.740;6.784;2023-02-22T14:36:50;33.42;;;28.17;;
59300;SDS011;45073;52.740;6.784;2023-02-22T14:39:34;32.03;;;17.60;;
59300;SDS011;45073;52.740;6.784;2023-02-22T14:50:16;33.38;;;18.85;;
59300;SDS011;45073;52.740;6.784;2023-02-22T14:55:38;36.70;;;31.13;;
59300;SDS011;45073;52.740;6.784;2023-02-22T14:58:40;34.70;;;29.45;;
59300;SDS011;45073;52.740;6.784;2023-02-22T15:03:48;32.75;;;18.67;;
59300;SDS011;45073;52.740;6.784;2023-02-22T15:06:18;36.00;;;19.60;;
59300;SDS011;45073;52.740;6.784;2023-02-22T15:08:46;30.42;;;18.73;;
59300;SDS011;45073;52.740;6.784;2023-02-22T15:11:20;33.10;;;18.88;;
59300;SDS011;45073;52.740;6.784;2023-02-22T15:13:52;36.28;;;21.50;;
59300;SDS011;45073;52.740;6.784;2023-02-22T15:16:19;32.70;;;19.50;;
59300;SDS011;45073;52.740;6.784;2023-02-22T15:18:47;34.45;;;19.30;;
59300;SDS011;45073;52.740;6.784;2023-02-22T15:21:22;34.75;;;20.13;;
59300;SDS011;45073;52.740;6.784;2023-02-22T15:24:00;34.90;;;19.52;;
59300;SDS011;45073;52.740;6.784;2023-02-22T15:29:08;36.80;;;18.95;;
59300;SDS011;45073;52.740;6.784;2023-02-22T15:31:40;35.83;;;19.73;;
59300;SDS011;45073;52.740;6.784;2023-02-22T15:36:39;33.53;;;18.55;;
59300;SDS011;45073;52.740;6.784;2023-02-22T15:39:17;31.92;;;18.23;;
59300;SDS011;45073;52.740;6.784;2023-02-22T15:42:07;36.22;;;18.98;;
59300;SDS011;45073;52.740;6.784;2023-02-22T15:44:39;35.13;;;18.73;;
59300;SDS011;45073;52.740;6.784;2023-02-22T15:47:10;33.28;;;17.52;;
59300;SDS011;45073;52.740;6.784;2023-02-22T15:49:40;33.72;;;18.40;;
59300;SDS011;45073;52.740;6.784;2023-02-22T15:52:07;34.70;;;18.95;;
59300;SDS011;45073;52.740;6.784;2023-02-22T15:54:45;34.83;;;19.48;;
59300;SDS011;45073;52.740;6.784;2023-02-22T15:57:13;35.10;;;19.83;;
59300;SDS011;45073;52.740;6.784;2023-02-22T15:59:43;34.05;;;18.98;;
59300;SDS011;45073;52.740;6.784;2023-02-22T16:02:33;36.38;;;19.85;;
59300;SDS011;45073;52.740;6.784;2023-02-22T16:05:07;33.90;;;19.75;;
59300;SDS011;45073;52.740;6.784;2023-02-22T16:07:40;36.72;;;18.73;;
59300;SDS011;45073;52.740;6.784;2023-02-22T16:10:16;33.75;;;19.17;;
59300;SDS011;45073;52.740;6.784;2023-02-22T16:12:47;31.80;;;17.80;;
59300;SDS011;45073;52.740;6.784;2023-02-22T16:15:13;32.20;;;18.75;;
59300;SDS011;45073;52.740;6.784;2023-02-22T16:17:40;33.88;;;17.75;;
59300;SDS011;45073;52.740;6.784;2023-02-22T16:22:35;35.40;;;18.98;;
59300;SDS011;45073;52.740;6.784;2023-02-22T16:25:12;35.13;;;19.48;;
59300;SDS011;45073;52.740;6.784;2023-02-22T16:28:22;33.03;;;18.42;;
59300;SDS011;45073;52.740;6.784;2023-02-22T16:30:55;28.95;;;16.67;;
59300;SDS011;45073;52.740;6.784;2023-02-22T16:33:22;33.15;;;17.02;;
59300;SDS011;45073;52.740;6.784;2023-02-22T16:35:47;31.80;;;18.05;;
59300;SDS011;45073;52.740;6.784;2023-02-22T16:38:16;36.58;;;21.30;;
59300;SDS011;45073;52.740;6.784;2023-02-22T16:43:16;31.60;;;17.40;;
59300;SDS011;45073;52.740;6.784;2023-02-22T16:45:43;30.60;;;17.20;;
59300;SDS011;45073;52.740;6.784;2023-02-22T16:48:18;33.70;;;18.58;;
59300;SDS011;45073;52.740;6.784;2023-02-22T16:50:48;31.10;;;17.20;;
59300;SDS011;45073;52.740;6.784;2023-02-22T16:53:16;32.97;;;18.08;;
59300;SDS011;45073;52.740;6.784;2023-02-22T16:55:48;29.50;;;17.50;;
59300;SDS011;45073;52.740;6.784;2023-02-22T16:58:21;34.95;;;18.38;;
59300;SDS011;45073;52.740;6.784;2023-02-22T17:00:51;30.30;;;18.23;;
59300;SDS011;45073;52.740;6.784;2023-02-22T17:03:17;32.28;;;17.30;;
59300;SDS011;45073;52.740;6.784;2023-02-22T17:05:44;31.98;;;18.17;;
59300;SDS011;45073;52.740;6.784;2023-02-22T17:08:10;33.85;;;17.70;;
59300;SDS011;45073;52.740;6.784;2023-02-22T17:10:35;29.75;;;17.42;;
59300;SDS011;45073;52.740;6.784;2023-02-22T17:13:01;36.33;;;19.27;;
59300;SDS011;45073;52.740;6.784;2023-02-22T17:15:31;30.75;;;16.80;;